Time;durP1;ratioP1;P1;durP2;ratioP2;P2;SDS_P1;SDS_P2;PMS_P1;PMS_P2;Temp;Humidity;BMP_temperature;BMP_pressure;BME280_temperature;BME280_humidity;BME280_pressure;Samples;Min_cycle;Max_cycle;Signal;HPM_P1;HPM_P2
2022/01/05 00:01:49;;;;;;;1.20;1.10;;;;;;;;;;5051230;28;20032;-69
2022/01/05 00:04:35;;;;;;;1.02;0.73;;;;;;;;;;5029696;28;20376;-69
2022/01/05 00:07:20;;;;;;;1.05;0.80;;;;;;;;;;5029622;28;20060;-68
2022/01/05 00:10:06;;;;;;;0.93;0.82;;;;;;;;;;5030742;28;20029;-71
2022/01/05 00:12:51;;;;;;;0.80;0.80;;;;;;;;;;5047698;28;20024;-67
2022/01/05 00:15:36;;;;;;;3.00;1.10;;;;;;;;;;5034406;28;20021;-72
2022/01/05 00:18:22;;;;;;;0.73;0.70;;;;;;;;;;5018405;28;20047;-71
2022/01/05 00:21:07;;;;;;;2.15;0.70;;;;;;;;;;5031881;28;20131;-71
2022/01/05 00:23:52;;;;;;;1.13;1.00;;;;;;;;;;5018008;28;20026;-71
2022/01/05 00:26:37;;;;;;;1.10;1.00;;;;;;;;;;5020573;28;20399;-71
2022/01/05 00:29:23;;;;;;;0.73;0.68;;;;;;;;;;5037430;28;20192;-70
2022/01/05 00:32:08;;;;;;;0.63;0.63;;;;;;;;;;5044680;28;20035;-67
2022/01/05 00:34:54;;;;;;;0.88;0.60;;;;;;;;;;5037427;28;20234;-69
2022/01/05 00:37:39;;;;;;;1.95;0.80;;;;;;;;;;5016419;28;20041;-71
2022/01/05 00:40:24;;;;;;;1.75;1.27;;;;;;;;;;5050007;28;20488;-68
2022/01/05 00:43:10;;;;;;;2.47;1.50;;;;;;;;;;5050795;28;20060;-69
2022/01/05 00:45:55;;;;;;;0.85;0.70;;;;;;;;;;5037769;28;20033;-68
2022/01/05 00:48:40;;;;;;;0.70;0.70;;;;;;;;;;5036476;28;20047;-62
2022/01/05 00:51:25;;;;;;;0.88;0.60;;;;;;;;;;5038679;28;20032;-68
2022/01/05 00:54:11;;;;;;;0.70;0.70;;;;;;;;;;5024332;28;20030;-67
2022/01/05 00:56:56;;;;;;;1.02;0.75;;;;;;;;;;5034367;28;20037;-71
2022/01/05 00:59:41;;;;;;;0.75;0.70;;;;;;;;;;5029854;28;20049;-68
2022/01/05 01:02:26;;;;;;;0.60;0.60;;;;;;;;;;5051633;28;20511;-67
2022/01/05 01:05:14;;;;;;;0.75;0.60;;;;;;;;;;5035868;28;20038;-62
2022/01/05 01:08:00;;;;;;;1.13;0.60;;;;;;;;;;5016875;28;20090;-62
2022/01/05 01:10:46;;;;;;;1.08;0.57;;;;;;;;;;5017408;28;20022;-60
2022/01/05 01:13:31;;;;;;;0.93;0.60;;;;;;;;;;5019061;28;20041;-59
2022/01/05 01:16:18;;;;;;;0.50;0.50;;;;;;;;;;5037104;28;20035;-63
2022/01/05 01:19:03;;;;;;;0.60;0.60;;;;;;;;;;5035632;28;20036;-61
2022/01/05 01:21:49;;;;;;;0.60;0.60;;;;;;;;;;5037038;28;20438;-61
2022/01/05 01:24:34;;;;;;;0.68;0.50;;;;;;;;;;5036188;28;20028;-67
2022/01/05 01:27:20;;;;;;;0.50;0.50;;;;;;;;;;5036870;28;20028;-74
2022/01/05 01:30:06;;;;;;;0.50;0.50;;;;;;;;;;5035634;28;20388;-73
2022/01/05 01:32:51;;;;;;;4.35;2.20;;;;;;;;;;5036598;28;20383;-73
2022/01/05 01:35:37;;;;;;;1.58;0.60;;;;;;;;;;5041486;28;20335;-73
2022/01/05 01:38:22;;;;;;;0.50;0.50;;;;;;;;;;5037344;28;20020;-72
2022/01/05 01:41:07;;;;;;;1.23;0.68;;;;;;;;;;5035759;28;20033;-72
2022/01/05 01:43:52;;;;;;;0.63;0.55;;;;;;;;;;5037399;28;20025;-64
2022/01/05 01:46:38;;;;;;;0.52;0.52;;;;;;;;;;5050831;28;20021;-61
2022/01/05 01:49:23;;;;;;;0.60;0.52;;;;;;;;;;5051027;28;20017;-60
2022/01/05 01:52:09;;;;;;;0.57;0.52;;;;;;;;;;5051559;28;20043;-62
2022/01/05 01:54:54;;;;;;;0.85;0.60;;;;;;;;;;5051755;28;20079;-62
2022/01/05 01:57:41;;;;;;;0.50;0.50;;;;;;;;;;5002304;28;20045;-62
2022/01/05 02:00:26;;;;;;;0.50;0.50;;;;;;;;;;5021892;28;20039;-72
2022/01/05 02:03:14;;;;;;;0.77;0.52;;;;;;;;;;5042616;28;20029;-71
2022/01/05 02:05:59;;;;;;;0.50;0.50;;;;;;;;;;5034710;28;20036;-72
2022/01/05 02:08:44;;;;;;;0.52;0.52;;;;;;;;;;5043467;28;20083;-72
2022/01/05 02:11:30;;;;;;;2.65;0.60;;;;;;;;;;5034769;28;20071;-71
2022/01/05 02:14:16;;;;;;;0.60;0.50;;;;;;;;;;5035797;28;20017;-72
2022/01/05 02:17:04;;;;;;;1.00;0.50;;;;;;;;;;5015373;28;20121;-71
2022/01/05 02:19:50;;;;;;;1.45;0.63;;;;;;;;;;5024029;28;20032;-61
2022/01/05 02:22:35;;;;;;;0.93;0.60;;;;;;;;;;5034912;28;20029;-65
2022/01/05 02:25:21;;;;;;;0.70;0.70;;;;;;;;;;5035756;28;20076;-63
2022/01/05 02:28:06;;;;;;;0.80;0.80;;;;;;;;;;5033496;28;20029;-63
2022/01/05 02:30:56;;;;;;;0.60;0.60;;;;;;;;;;5015497;28;20092;-60
2022/01/05 02:33:41;;;;;;;1.58;0.93;;;;;;;;;;5015425;28;20075;-61
2022/01/05 02:36:26;;;;;;;0.60;0.60;;;;;;;;;;5029830;28;20404;-61
2022/01/05 02:39:12;;;;;;;0.75;0.65;;;;;;;;;;5025323;28;20232;-65
2022/01/05 02:41:57;;;;;;;0.50;0.50;;;;;;;;;;5034495;28;20028;-71
2022/01/05 02:44:45;;;;;;;0.50;0.50;;;;;;;;;;5030339;28;20461;-71
2022/01/05 02:47:31;;;;;;;2.38;0.70;;;;;;;;;;5038317;28;20126;-71
2022/01/05 02:50:16;;;;;;;0.88;0.80;;;;;;;;;;5050219;28;20021;-72
2022/01/05 02:53:01;;;;;;;0.90;0.70;;;;;;;;;;5050098;28;20024;-74
2022/01/05 02:55:47;;;;;;;0.90;0.63;;;;;;;;;;5035454;28;20025;-62
2022/01/05 02:58:32;;;;;;;1.90;1.13;;;;;;;;;;5024206;28;20037;-64
2022/01/05 03:01:17;;;;;;;1.13;1.05;;;;;;;;;;5046686;28;20033;-69
2022/01/05 03:04:02;;;;;;;1.05;0.70;;;;;;;;;;5034238;28;20036;-67
2022/01/05 03:06:48;;;;;;;0.75;0.70;;;;;;;;;;5034993;28;20107;-68
2022/01/05 03:09:33;;;;;;;0.93;0.65;;;;;;;;;;5033989;28;20052;-67
2022/01/05 03:12:18;;;;;;;0.60;0.60;;;;;;;;;;5029204;28;20024;-67
2022/01/05 03:15:04;;;;;;;1.35;0.60;;;;;;;;;;5014069;28;20033;-61
2022/01/05 03:17:49;;;;;;;1.75;0.77;;;;;;;;;;5014422;28;20068;-70
2022/01/05 03:20:35;;;;;;;0.60;0.60;;;;;;;;;;5015745;28;20472;-70
2022/01/05 03:23:20;;;;;;;0.80;0.60;;;;;;;;;;5029583;28;20021;-74
2022/01/05 03:26:05;;;;;;;0.73;0.55;;;;;;;;;;5027158;28;20032;-72
2022/01/05 03:28:50;;;;;;;0.70;0.70;;;;;;;;;;5014588;28;20032;-72
2022/01/05 03:31:35;;;;;;;1.95;0.70;;;;;;;;;;5014910;28;20029;-72
2022/01/05 03:34:21;;;;;;;0.85;0.55;;;;;;;;;;5028554;28;20104;-67
2022/01/05 03:37:06;;;;;;;0.57;0.55;;;;;;;;;;5035843;28;20029;-61
2022/01/05 03:39:51;;;;;;;1.48;0.65;;;;;;;;;;5034667;28;20033;-62
2022/01/05 03:42:36;;;;;;;0.47;0.47;;;;;;;;;;5032099;28;20060;-60
2022/01/05 03:45:22;;;;;;;0.60;0.60;;;;;;;;;;5039204;28;20096;-59
2022/01/05 03:48:08;;;;;;;1.27;0.60;;;;;;;;;;5036258;28;20480;-60
2022/01/05 03:50:54;;;;;;;0.77;0.60;;;;;;;;;;5014904;28;20025;-61
2022/01/05 03:53:39;;;;;;;0.50;0.40;;;;;;;;;;5033455;28;20045;-68
2022/01/05 03:56:24;;;;;;;0.40;0.40;;;;;;;;;;5038511;28;20033;-66
2022/01/05 03:59:09;;;;;;;1.40;0.47;;;;;;;;;;5036916;28;20037;-67
2022/01/05 04:02:01;;;;;;;0.82;0.50;;;;;;;;;;5036310;28;20029;-67
2022/01/05 04:04:47;;;;;;;0.50;0.50;;;;;;;;;;5018542;28;20035;-69
2022/01/05 04:07:32;;;;;;;0.70;0.63;;;;;;;;;;5033084;28;20030;-67
2022/01/05 04:10:18;;;;;;;0.90;0.60;;;;;;;;;;5038224;28;20167;-71
2022/01/05 04:13:04;;;;;;;0.40;0.40;;;;;;;;;;5052326;28;20552;-72
2022/01/05 04:15:49;;;;;;;0.40;0.40;;;;;;;;;;5044830;28;20020;-73
2022/01/05 04:18:34;;;;;;;0.50;0.50;;;;;;;;;;5036577;28;20027;-73
2022/01/05 04:21:19;;;;;;;0.50;0.50;;;;;;;;;;5017974;28;20029;-73
2022/01/05 04:24:05;;;;;;;0.40;0.40;;;;;;;;;;5019693;28;20477;-71
2022/01/05 04:26:50;;;;;;;0.50;0.50;;;;;;;;;;5018101;28;20025;-71
2022/01/05 04:29:35;;;;;;;0.57;0.40;;;;;;;;;;5030016;28;20036;-64
2022/01/05 04:32:21;;;;;;;0.40;0.40;;;;;;;;;;5037357;28;20059;-72
2022/01/05 04:35:06;;;;;;;0.50;0.50;;;;;;;;;;5037878;28;20029;-72
2022/01/05 04:37:51;;;;;;;0.40;0.40;;;;;;;;;;5052868;28;20114;-72
2022/01/05 04:40:37;;;;;;;1.02;0.60;;;;;;;;;;5052040;28;20040;-73
2022/01/05 04:43:22;;;;;;;1.15;0.60;;;;;;;;;;5052748;28;20419;-72
2022/01/05 04:46:07;;;;;;;0.45;0.45;;;;;;;;;;5030906;28;20092;-71
2022/01/05 04:48:52;;;;;;;0.40;0.40;;;;;;;;;;5024669;28;20588;-72
2022/01/05 04:51:38;;;;;;;1.42;0.60;;;;;;;;;;5032846;28;20031;-62
2022/01/05 04:54:23;;;;;;;0.40;0.40;;;;;;;;;;5037426;28;20048;-63
2022/01/05 04:57:08;;;;;;;0.40;0.40;;;;;;;;;;5029911;28;20017;-62
2022/01/05 04:59:53;;;;;;;0.40;0.40;;;;;;;;;;5017198;28;20029;-65
2022/01/05 05:02:39;;;;;;;2.15;0.50;;;;;;;;;;5038936;28;20029;-62
2022/01/05 05:05:24;;;;;;;0.50;0.50;;;;;;;;;;5017018;28;20507;-69
2022/01/05 05:08:09;;;;;;;0.45;0.45;;;;;;;;;;5037457;28;20028;-71
2022/01/05 05:10:54;;;;;;;0.50;0.50;;;;;;;;;;5033202;28;20499;-73
2022/01/05 05:13:40;;;;;;;0.40;0.40;;;;;;;;;;5017577;28;20056;-71
2022/01/05 05:16:25;;;;;;;1.00;0.60;;;;;;;;;;5017300;28;20025;-72
2022/01/05 05:19:10;;;;;;;0.52;0.50;;;;;;;;;;5024250;28;20032;-72
2022/01/05 05:21:55;;;;;;;0.55;0.47;;;;;;;;;;5039471;28;20028;-75
2022/01/05 05:24:41;;;;;;;0.60;0.60;;;;;;;;;;5036915;28;20029;-70
2022/01/05 05:27:26;;;;;;;0.50;0.50;;;;;;;;;;5050465;28;20029;-68
2022/01/05 05:30:11;;;;;;;0.93;0.65;;;;;;;;;;5036865;28;20388;-68
2022/01/05 05:32:57;;;;;;;0.68;0.60;;;;;;;;;;5035638;28;20416;-68
2022/01/05 05:35:43;;;;;;;0.60;0.50;;;;;;;;;;5052777;28;20079;-68
2022/01/05 05:38:28;;;;;;;0.95;0.63;;;;;;;;;;5049072;28;20067;-69
2022/01/05 05:41:14;;;;;;;0.73;0.63;;;;;;;;;;5037218;28;20029;-74
2022/01/05 05:43:59;;;;;;;0.80;0.55;;;;;;;;;;5015900;28;20044;-70
2022/01/05 05:46:44;;;;;;;1.65;0.70;;;;;;;;;;5016642;28;20136;-70
2022/01/05 05:49:29;;;;;;;0.85;0.60;;;;;;;;;;5034888;28;20036;-68
2022/01/05 05:52:15;;;;;;;0.63;0.50;;;;;;;;;;5030647;28;20029;-68
2022/01/05 05:55:00;;;;;;;0.73;0.65;;;;;;;;;;5036335;28;20410;-70
2022/01/05 05:57:46;;;;;;;0.60;0.60;;;;;;;;;;5034220;28;20045;-67
2022/01/05 06:00:31;;;;;;;1.60;0.75;;;;;;;;;;5026563;28;20067;-67
2022/01/05 06:03:17;;;;;;;0.52;0.52;;;;;;;;;;5041426;28;20353;-67
2022/01/05 06:06:02;;;;;;;0.85;0.77;;;;;;;;;;5036416;28;20093;-69
2022/01/05 06:08:47;;;;;;;0.88;0.70;;;;;;;;;;5015537;28;20017;-67
2022/01/05 06:11:32;;;;;;;0.95;0.75;;;;;;;;;;5016152;28;20025;-67
2022/01/05 06:14:18;;;;;;;1.80;0.80;;;;;;;;;;5024599;28;20029;-68
2022/01/05 06:17:03;;;;;;;0.70;0.70;;;;;;;;;;5050614;28;20025;-69
2022/01/05 06:19:48;;;;;;;0.60;0.60;;;;;;;;;;5034482;28;20496;-62
2022/01/05 06:22:36;;;;;;;0.85;0.77;;;;;;;;;;5051694;28;20033;-61
2022/01/05 06:25:22;;;;;;;1.48;0.73;;;;;;;;;;5039777;28;20621;-62
2022/01/05 06:28:11;;;;;;;7.07;3.30;;;;;;;;;;5036007;28;20029;-61
2022/01/05 06:30:56;;;;;;;2.97;1.80;;;;;;;;;;5050706;28;20021;-60
2022/01/05 06:33:41;;;;;;;1.60;0.90;;;;;;;;;;5050988;28;20033;-60
2022/01/05 06:36:26;;;;;;;2.10;0.90;;;;;;;;;;5049753;28;20036;-66
2022/01/05 06:39:12;;;;;;;0.95;0.70;;;;;;;;;;5050458;28;20438;-68
2022/01/05 06:41:57;;;;;;;1.75;0.80;;;;;;;;;;5005873;28;20036;-60
2022/01/05 06:44:42;;;;;;;1.70;0.85;;;;;;;;;;5015766;28;20032;-64
2022/01/05 06:47:28;;;;;;;3.75;1.60;;;;;;;;;;5018999;28;20033;-65
2022/01/05 06:50:13;;;;;;;2.78;1.00;;;;;;;;;;5015131;28;20079;-62
2022/01/05 06:52:58;;;;;;;2.72;1.20;;;;;;;;;;5028956;28;20052;-61
2022/01/05 06:55:44;;;;;;;1.90;0.80;;;;;;;;;;5034898;28;20405;-69
2022/01/05 06:58:29;;;;;;;3.63;1.00;;;;;;;;;;5029329;28;20048;-71
2022/01/05 07:01:14;;;;;;;1.02;0.70;;;;;;;;;;5032687;28;20477;-72
2022/01/05 07:03:59;;;;;;;1.40;0.93;;;;;;;;;;5041481;28;20036;-71
2022/01/05 07:06:45;;;;;;;3.35;0.98;;;;;;;;;;5019753;28;20024;-72
2022/01/05 07:09:30;;;;;;;5.70;1.23;;;;;;;;;;5034829;28;20511;-70
2022/01/05 07:12:15;;;;;;;1.50;0.93;;;;;;;;;;5033105;28;20029;-71
2022/01/05 07:15:00;;;;;;;2.00;1.15;;;;;;;;;;5049479;28;20487;-59
2022/01/05 07:17:46;;;;;;;2.85;1.40;;;;;;;;;;5048087;28;20020;-60
2022/01/05 07:20:31;;;;;;;2.05;0.93;;;;;;;;;;5034135;28;20520;-61
2022/01/05 07:23:16;;;;;;;1.52;1.08;;;;;;;;;;5008255;28;20017;-61
2022/01/05 07:26:01;;;;;;;14.48;9.00;;;;;;;;;;5030321;28;20034;-60
2022/01/05 07:28:47;;;;;;;3.83;2.25;;;;;;;;;;5035199;28;20020;-61
2022/01/05 07:31:32;;;;;;;2.08;1.00;;;;;;;;;;5051181;28;20021;-72
2022/01/05 07:34:17;;;;;;;2.17;1.35;;;;;;;;;;5021887;28;20025;-68
2022/01/05 07:37:03;;;;;;;2.28;0.95;;;;;;;;;;5013582;28;20033;-69
2022/01/05 07:39:48;;;;;;;2.88;1.40;;;;;;;;;;5030061;28;20044;-67
2022/01/05 07:42:34;;;;;;;3.72;1.05;;;;;;;;;;5034129;28;20047;-68
2022/01/05 07:45:20;;;;;;;1.95;0.93;;;;;;;;;;5027604;28;20511;-68
2022/01/05 07:48:05;;;;;;;3.90;1.27;;;;;;;;;;5034442;28;20033;-68
2022/01/05 07:50:51;;;;;;;6.82;2.63;;;;;;;;;;5020421;28;20112;-69
2022/01/05 07:53:36;;;;;;;4.05;1.10;;;;;;;;;;5032373;28;20025;-68
2022/01/05 07:56:21;;;;;;;5.70;1.70;;;;;;;;;;5034253;28;20411;-69
2022/01/05 07:59:07;;;;;;;7.05;1.75;;;;;;;;;;5031887;28;20091;-67
2022/01/05 08:01:52;;;;;;;4.03;1.50;;;;;;;;;;5035395;28;20250;-69
2022/01/05 08:04:37;;;;;;;2.80;1.67;;;;;;;;;;5026651;28;20487;-69
2022/01/05 08:07:22;;;;;;;5.75;1.85;;;;;;;;;;5014070;28;20554;-67
2022/01/05 08:10:08;;;;;;;4.15;2.22;;;;;;;;;;5023776;28;20021;-67
2022/01/05 08:12:53;;;;;;;5.88;2.05;;;;;;;;;;5049772;28;20021;-60
2022/01/05 08:15:38;;;;;;;4.28;1.92;;;;;;;;;;5047259;28;20235;-64
2022/01/05 08:18:23;;;;;;;5.97;1.95;;;;;;;;;;5048643;28;20519;-63
2022/01/05 08:21:10;;;;;;;6.68;1.85;;;;;;;;;;5033571;28;20052;-61
2022/01/05 08:23:55;;;;;;;4.50;2.00;;;;;;;;;;5034537;28;20021;-59
2022/01/05 08:26:40;;;;;;;4.50;2.08;;;;;;;;;;5034946;28;20033;-60
2022/01/05 08:29:25;;;;;;;5.72;2.90;;;;;;;;;;5049600;28;20082;-71
2022/01/05 08:32:10;;;;;;;5.28;2.53;;;;;;;;;;5040144;28;20074;-62
2022/01/05 08:34:56;;;;;;;5.57;2.28;;;;;;;;;;5049343;28;20032;-61
2022/01/05 08:37:44;;;;;;;6.72;1.92;;;;;;;;;;5013362;28;20127;-63
2022/01/05 08:40:30;;;;;;;3.83;1.90;;;;;;;;;;5036488;28;20381;-65
2022/01/05 08:43:15;;;;;;;8.20;2.25;;;;;;;;;;5031744;28;20120;-61
2022/01/05 08:46:01;;;;;;;13.13;2.85;;;;;;;;;;5036404;28;20598;-75
2022/01/05 08:48:46;;;;;;;5.68;2.28;;;;;;;;;;5018035;28;20026;-72
2022/01/05 08:51:32;;;;;;;16.83;9.45;;;;;;;;;;5019786;28;20215;-74
2022/01/05 08:54:17;;;;;;;6.78;1.85;;;;;;;;;;5023937;28;20016;-71
2022/01/05 08:57:03;;;;;;;5.03;1.80;;;;;;;;;;5035312;28;20388;-72
2022/01/05 08:59:51;;;;;;;6.65;1.95;;;;;;;;;;5023365;28;20039;-75
2022/01/05 09:02:37;;;;;;;7.88;2.83;;;;;;;;;;5038793;28;20387;-74
2022/01/05 09:05:22;;;;;;;5.50;2.00;;;;;;;;;;5023433;28;20108;-64
2022/01/05 09:08:08;;;;;;;3.95;1.70;;;;;;;;;;5021847;28;20017;-72
2022/01/05 09:10:53;;;;;;;10.27;2.72;;;;;;;;;;5014521;28;20044;-71
2022/01/05 09:13:38;;;;;;;8.93;1.80;;;;;;;;;;5015866;28;20112;-71
2022/01/05 09:16:23;;;;;;;5.05;1.73;;;;;;;;;;5032235;28;20128;-71
2022/01/05 09:19:09;;;;;;;6.63;2.20;;;;;;;;;;5036412;28;20033;-73
2022/01/05 09:21:54;;;;;;;6.28;2.03;;;;;;;;;;5053397;28;20032;-73
2022/01/05 09:24:40;;;;;;;4.82;1.95;;;;;;;;;;5030416;28;20065;-67
2022/01/05 09:27:25;;;;;;;5.45;1.88;;;;;;;;;;5033739;28;20437;-58
2022/01/05 09:30:11;;;;;;;8.38;2.22;;;;;;;;;;5034224;28;20036;-60
2022/01/05 09:32:58;;;;;;;9.88;2.22;;;;;;;;;;5033956;28;20093;-64
2022/01/05 09:35:45;;;;;;;6.47;1.95;;;;;;;;;;5034420;28;20037;-60
2022/01/05 09:41:56;;;;;;;7.07;2.17;;;;;;;;;;5024126;28;20033;-61
2022/01/05 09:41:56;;;;;;;10.35;2.15;;;;;;;;;;5051126;28;20136;-66
2022/01/05 09:44:43;;;;;;;7.80;2.53;;;;;;;;;;5029278;28;20044;-60
2022/01/05 09:47:37;;;;;;;6.25;2.20;;;;;;;;;;5016652;28;20024;-58
2022/01/05 09:50:23;;;;;;;7.05;2.20;;;;;;;;;;5027027;28;20029;-63
2022/01/05 09:53:09;;;;;;;8.73;2.28;;;;;;;;;;5050819;28;20027;-60
2022/01/05 09:55:54;;;;;;;7.63;1.88;;;;;;;;;;5035039;28;20040;-59
2022/01/05 09:58:42;;;;;;;7.95;2.20;;;;;;;;;;5035804;28;20387;-59
2022/01/05 10:01:37;;;;;;;12.40;2.08;;;;;;;;;;5047706;28;20040;-70
2022/01/05 10:04:22;;;;;;;11.70;2.08;;;;;;;;;;5046140;28;20035;-60
2022/01/05 10:07:10;;;;;;;6.65;2.28;;;;;;;;;;5023144;28;20238;-60
2022/01/05 10:09:56;;;;;;;4.40;1.90;;;;;;;;;;5035575;28;20444;-62
2022/01/05 10:12:41;;;;;;;8.52;1.95;;;;;;;;;;5051866;28;20045;-62
2022/01/05 10:15:27;;;;;;;5.97;1.80;;;;;;;;;;5047568;28;20036;-61
2022/01/05 10:18:13;;;;;;;8.00;2.10;;;;;;;;;;5037119;28;20041;-63
2022/01/05 10:21:03;;;;;;;10.50;2.28;;;;;;;;;;5031280;28;20499;-66
2022/01/05 10:23:49;;;;;;;8.20;2.10;;;;;;;;;;5030448;28;20025;-68
2022/01/05 10:26:36;;;;;;;7.85;2.22;;;;;;;;;;5030846;28;20112;-67
2022/01/05 10:29:22;;;;;;;10.18;2.20;;;;;;;;;;5016988;28;20021;-66
2022/01/05 10:32:07;;;;;;;7.60;2.08;;;;;;;;;;5035863;28;20380;-67
2022/01/05 10:34:59;;;;;;;15.45;3.00;;;;;;;;;;5015642;28;20033;-67
2022/01/05 10:37:45;;;;;;;13.75;2.83;;;;;;;;;;5004873;28;20075;-67
2022/01/05 10:40:35;;;;;;;9.45;2.35;;;;;;;;;;5042671;28;20051;-70
2022/01/05 10:43:21;;;;;;;10.02;2.40;;;;;;;;;;5039877;28;20052;-70
2022/01/05 10:46:06;;;;;;;8.80;2.25;;;;;;;;;;5035405;28;20017;-67
2022/01/05 10:48:53;;;;;;;8.30;1.80;;;;;;;;;;5027909;28;20037;-65
2022/01/05 10:51:38;;;;;;;9.45;2.00;;;;;;;;;;5001648;28;20584;-68
2022/01/05 10:54:25;;;;;;;7.57;2.15;;;;;;;;;;5026958;28;20037;-68
2022/01/05 10:57:12;;;;;;;17.60;3.55;;;;;;;;;;5015372;28;20191;-69
2022/01/05 10:59:58;;;;;;;7.28;2.03;;;;;;;;;;5030673;28;20523;-70
2022/01/05 11:02:43;;;;;;;8.05;2.75;;;;;;;;;;5043233;28;20017;-69
2022/01/05 11:05:28;;;;;;;8.43;1.73;;;;;;;;;;5034623;28;20029;-68
2022/01/05 11:08:14;;;;;;;12.60;4.35;;;;;;;;;;5033665;28;20033;-67
2022/01/05 11:10:59;;;;;;;12.18;3.17;;;;;;;;;;5036718;28;20308;-69
2022/01/05 11:13:51;;;;;;;9.45;3.33;;;;;;;;;;5051906;28;20532;-61
2022/01/05 11:16:37;;;;;;;7.85;1.83;;;;;;;;;;5050181;28;20032;-72
2022/01/05 11:19:27;;;;;;;7.45;2.00;;;;;;;;;;5048277;28;20079;-72
2022/01/05 11:22:16;;;;;;;9.18;2.70;;;;;;;;;;5051569;28;20063;-72
2022/01/05 11:25:01;;;;;;;7.80;2.30;;;;;;;;;;5035279;28;20120;-70
2022/01/05 11:27:47;;;;;;;7.38;2.17;;;;;;;;;;5030106;28;20024;-73
2022/01/05 11:30:32;;;;;;;9.82;2.10;;;;;;;;;;5030141;28;20025;-71
2022/01/05 11:33:18;;;;;;;8.70;1.95;;;;;;;;;;5020760;28;20127;-68
2022/01/05 11:36:04;;;;;;;6.85;2.83;;;;;;;;;;5013292;28;20516;-70
2022/01/05 11:38:49;;;;;;;22.98;21.30;;;;;;;;;;5006725;28;20033;-69
2022/01/05 11:41:36;;;;;;;6.35;2.35;;;;;;;;;;5014627;28;20029;-69
2022/01/05 11:44:21;;;;;;;1999.90;999.90;;;;;;;;;;5008573;28;20387;-70
2022/01/05 11:47:18;;;;;;;8.63;2.85;;;;;;;;;;5034171;28;20473;-68
2022/01/05 11:50:13;;;;;;;21.83;10.00;;;;;;;;;;5019186;28;20441;-68
2022/01/05 11:52:59;;;;;;;7.15;2.75;;;;;;;;;;5020425;28;20108;-73
2022/01/05 11:55:57;;;;;;;5.32;2.72;;;;;;;;;;5026741;28;20087;-73
2022/01/05 11:59:08;;;;;;;1999.90;999.90;;;;;;;;;;5030470;28;20476;-73
2022/01/05 12:01:58;;;;;;;24.45;22.38;;;;;;;;;;5028217;28;20037;-73
2022/01/05 12:04:56;;;;;;;40.38;37.88;;;;;;;;;;5014092;28;20553;-75
2022/01/05 12:07:46;;;;;;;8.63;4.35;;;;;;;;;;5029027;28;20481;-72
2022/01/05 12:10:50;;;;;;;7.18;2.92;;;;;;;;;;5015941;28;20464;-64
2022/01/05 12:13:36;;;;;;;8.57;2.60;;;;;;;;;;5045680;28;20118;-68
2022/01/05 12:16:22;;;;;;;7.80;2.20;;;;;;;;;;5059784;28;20096;-67
2022/01/05 12:19:11;;;;;;;8.68;2.75;;;;;;;;;;5054338;28;20029;-69
2022/01/05 12:21:57;;;;;;;10.07;2.78;;;;;;;;;;5038520;28;20025;-68
2022/01/05 12:25:03;;;;;;;6.95;2.50;;;;;;;;;;5051848;28;20027;-69
2022/01/05 12:27:58;;;;;;;9.07;2.33;;;;;;;;;;5036443;28;20032;-73
2022/01/05 12:30:43;;;;;;;8.82;2.40;;;;;;;;;;5037503;28;20075;-68
2022/01/05 12:33:40;;;;;;;7.85;1.92;;;;;;;;;;5029960;28;20471;-70
2022/01/05 12:36:36;;;;;;;5.93;1.88;;;;;;;;;;5017533;28;20041;-68
2022/01/05 12:39:41;;;;;;;6.57;1.92;;;;;;;;;;5027375;28;20063;-69
2022/01/05 12:42:26;;;;;;;8.73;2.15;;;;;;;;;;5022354;28;20108;-69
2022/01/05 12:45:47;;;;;;;6.63;1.80;;;;;;;;;;5037463;28;20075;-62
2022/01/05 12:48:36;;;;;;;6.38;2.30;;;;;;;;;;4984415;28;20337;-64
2022/01/05 12:51:30;;;;;;;9.68;2.58;;;;;;;;;;5017421;28;20032;-62
2022/01/05 12:54:20;;;;;;;9.65;2.40;;;;;;;;;;5031657;28;20431;-61
2022/01/05 12:57:05;;;;;;;;;;;;;;;;;;5037781;28;20037;-66
2022/01/05 12:59:52;;;;;;;6.57;2.58;;;;;;;;;;5029197;28;20009;-64
2022/01/05 13:02:38;;;;;;;12.32;2.08;;;;;;;;;;5063685;28;20028;-63
2022/01/05 13:05:30;;;;;;;6.28;1.75;;;;;;;;;;5037269;28;20191;-75
2022/01/05 13:08:16;;;;;;;8.50;2.08;;;;;;;;;;5020866;28;20021;-65
2022/01/05 13:11:03;;;;;;;5.47;1.67;;;;;;;;;;5053940;28;20120;-65
2022/01/05 13:13:49;;;;;;;11.75;2.50;;;;;;;;;;5050599;28;20055;-64
2022/01/05 13:16:34;;;;;;;13.60;3.15;;;;;;;;;;5033185;28;20028;-66
2022/01/05 13:19:30;;;;;;;13.00;2.00;;;;;;;;;;5038097;28;20124;-66
2022/01/05 13:22:20;;;;;;;9.73;3.63;;;;;;;;;;5023382;28;20033;-69
2022/01/05 13:25:06;;;;;;;7.88;2.00;;;;;;;;;;5033003;28;20025;-62
2022/01/05 13:27:58;;;;;;;5.35;1.95;;;;;;;;;;5036656;28;20040;-63
2022/01/05 13:30:45;;;;;;;7.32;2.20;;;;;;;;;;5049328;28;20384;-62
2022/01/05 13:33:31;;;;;;;7.38;2.25;;;;;;;;;;5036743;28;20448;-64
2022/01/05 13:36:16;;;;;;;10.73;2.30;;;;;;;;;;5024055;28;20025;-63
2022/01/05 13:39:01;;;;;;;11.73;2.35;;;;;;;;;;5033490;28;20579;-62
2022/01/05 13:41:55;;;;;;;7.85;2.88;;;;;;;;;;5035491;28;20033;-66
2022/01/05 13:44:42;;;;;;;9.35;2.67;;;;;;;;;;5022782;28;20055;-74
2022/01/05 13:47:27;;;;;;;9.38;2.00;;;;;;;;;;5029475;28;20033;-73
2022/01/05 13:50:14;;;;;;;5.05;1.90;;;;;;;;;;5016708;28;20018;-73
2022/01/05 13:53:01;;;;;;;7.97;2.15;;;;;;;;;;5020820;28;20113;-73
2022/01/05 13:55:47;;;;;;;9.43;2.08;;;;;;;;;;5017211;28;20021;-75
2022/01/05 13:58:37;;;;;;;6.53;1.90;;;;;;;;;;5036050;28;20472;-72
2022/01/05 14:01:22;;;;;;;11.85;2.25;;;;;;;;;;5023543;28;20032;-67
2022/01/05 14:04:08;;;;;;;7.45;2.15;;;;;;;;;;5044857;28;20412;-64
2022/01/05 14:07:00;;;;;;;5.32;2.28;;;;;;;;;;5040334;28;20056;-63
2022/01/05 14:09:46;;;;;;;8.63;2.38;;;;;;;;;;5016998;28;20021;-63
2022/01/05 14:12:33;;;;;;;9.00;2.22;;;;;;;;;;5036527;28;20029;-61
2022/01/05 14:15:18;;;;;;;7.20;1.98;;;;;;;;;;5030829;28;20028;-61
2022/01/05 14:18:06;;;;;;;9.55;2.40;;;;;;;;;;5035623;28;20028;-68
2022/01/05 14:20:52;;;;;;;9.88;2.85;;;;;;;;;;5015875;28;20041;-68
2022/01/05 14:23:46;;;;;;;12.10;3.13;;;;;;;;;;5020624;28;20021;-71
2022/01/05 14:26:32;;;;;;;9.13;2.50;;;;;;;;;;5017311;28;20029;-68
2022/01/05 14:29:23;;;;;;;9.82;2.25;;;;;;;;;;5021020;28;20082;-68
2022/01/05 14:32:09;;;;;;;15.02;1.80;;;;;;;;;;5035467;28;20456;-68
2022/01/05 14:34:55;;;;;;;4.68;1.90;;;;;;;;;;5020166;28;20065;-71
2022/01/05 14:37:57;;;;;;;6.53;2.17;;;;;;;;;;5015766;28;20025;-62
2022/01/05 14:40:42;;;;;;;7.25;2.10;;;;;;;;;;5028158;28;20129;-69
2022/01/05 14:43:27;;;;;;;8.27;1.80;;;;;;;;;;5015566;28;20467;-68
2022/01/05 14:46:12;;;;;;;9.15;2.20;;;;;;;;;;5015438;28;20033;-67
2022/01/05 14:48:58;;;;;;;9.15;2.40;;;;;;;;;;5027722;28;20329;-67
2022/01/05 14:51:44;;;;;;;8.52;2.63;;;;;;;;;;5034929;28;20032;-68
2022/01/05 14:54:37;;;;;;;5.82;1.95;;;;;;;;;;5048490;28;20034;-74
2022/01/05 14:57:22;;;;;;;8.95;2.15;;;;;;;;;;5042552;28;20029;-62
2022/01/05 15:00:09;;;;;;;8.63;2.00;;;;;;;;;;5049823;28;20067;-61
2022/01/05 15:02:54;;;;;;;7.25;1.83;;;;;;;;;;5058806;28;20100;-60
2022/01/05 15:05:40;;;;;;;11.27;2.25;;;;;;;;;;5048983;28;20071;-62
2022/01/05 15:08:25;;;;;;;7.13;1.83;;;;;;;;;;5050756;28;20032;-63
2022/01/05 15:11:10;;;;;;;6.70;1.60;;;;;;;;;;5025661;28;20029;-62
2022/01/05 15:13:56;;;;;;;8.05;2.17;;;;;;;;;;5030371;28;20124;-65
2022/01/05 15:16:41;;;;;;;5.97;2.10;;;;;;;;;;5020080;28;20388;-68
2022/01/05 15:19:28;;;;;;;5.53;1.80;;;;;;;;;;5034682;28;20044;-69
2022/01/05 15:22:13;;;;;;;10.13;3.85;;;;;;;;;;5020957;28;20029;-66
2022/01/05 15:24:58;;;;;;;10.88;1.77;;;;;;;;;;5034204;28;20512;-65
2022/01/05 15:27:43;;;;;;;7.45;2.08;;;;;;;;;;5031586;28;20029;-66
2022/01/05 15:30:29;;;;;;;7.32;2.35;;;;;;;;;;5017473;28;20603;-62
2022/01/05 15:33:14;;;;;;;7.10;2.63;;;;;;;;;;5017517;28;20029;-64
2022/01/05 15:35:59;;;;;;;7.40;1.85;;;;;;;;;;5014576;28;20542;-71
2022/01/05 15:38:45;;;;;;;9.95;2.35;;;;;;;;;;5024902;28;20027;-72
2022/01/05 15:41:31;;;;;;;7.75;2.03;;;;;;;;;;5049117;28;20037;-70
2022/01/05 15:44:17;;;;;;;9.50;2.40;;;;;;;;;;5026867;28;20033;-72
2022/01/05 15:47:03;;;;;;;6.35;2.10;;;;;;;;;;5029985;28;20060;-71
2022/01/05 15:49:48;;;;;;;5.63;2.08;;;;;;;;;;5036940;28;20036;-63
2022/01/05 15:52:33;;;;;;;9.32;3.22;;;;;;;;;;5055746;28;20059;-63
2022/01/05 15:55:20;;;;;;;7.78;1.85;;;;;;;;;;5053397;28;20626;-64
2022/01/05 16:01:17;;;;;;;9.63;2.33;;;;;;;;;;5040821;28;20025;-64
2022/01/05 16:01:30;;;;;;;7.68;2.42;;;;;;;;;;5066688;28;20036;-64
2022/01/05 16:04:16;;;;;;;6.60;1.95;;;;;;;;;;5049185;28;20477;-64
2022/01/05 16:07:02;;;;;;;38.10;19.17;;;;;;;;;;5056738;28;20021;-73
2022/01/05 16:09:47;;;;;;;8.30;3.30;;;;;;;;;;5055481;28;20035;-61
2022/01/05 16:12:32;;;;;;;8.90;1.92;;;;;;;;;;5056539;28;20052;-61
2022/01/05 16:15:17;;;;;;;10.02;2.35;;;;;;;;;;5028988;28;20021;-61
2022/01/05 16:18:03;;;;;;;9.23;2.22;;;;;;;;;;5026682;28;20033;-60
2022/01/05 16:20:48;;;;;;;7.85;1.80;;;;;;;;;;5039369;28;20480;-61
2022/01/05 16:23:34;;;;;;;6.28;1.80;;;;;;;;;;5040720;28;20029;-61
2022/01/05 16:26:19;;;;;;;6.60;2.28;;;;;;;;;;5033084;28;20033;-65
2022/01/05 16:29:04;;;;;;;7.70;1.98;;;;;;;;;;5020790;28;20025;-61
2022/01/05 16:31:50;;;;;;;9.02;1.98;;;;;;;;;;5043220;28;20251;-63
2022/01/05 16:34:37;;;;;;;6.78;2.22;;;;;;;;;;5028938;28;20024;-60
2022/01/05 16:37:22;;;;;;;11.25;2.65;;;;;;;;;;5020367;28;20647;-60